Time;durP1;ratioP1;P1;durP2;ratioP2;P2;SDS_P1;SDS_P2;PMS_P1;PMS_P2;Temp;Humidity;BMP_temperature;BMP_pressure;BME280_temperature;BME280_humidity;BME280_pressure;Samples;Min_cycle;Max_cycle;Signal;HPM_P1;HPM_P2
2024/03/08 00:01:48;;;;;;;41.95;21.35;;;3.20;99.90;;;;;;4965405;28;20033;-84
2024/03/08 00:04:15;;;;;;;39.88;20.45;;;3.20;99.90;;;;;;4977969;28;20022;-84
2024/03/08 00:06:41;;;;;;;37.78;18.90;;;3.10;99.90;;;;;;4978065;28;20475;-84
2024/03/08 00:09:07;;;;;;;44.08;23.77;;;3.10;99.90;;;;;;4975128;28;20027;-84
2024/03/08 00:11:34;;;;;;;40.53;21.38;;;3.10;99.90;;;;;;4980208;28;20050;-84
2024/03/08 00:14:00;;;;;;;39.75;21.30;;;3.00;99.90;;;;;;4976087;28;20481;-84
2024/03/08 00:16:26;;;;;;;41.53;22.55;;;3.10;99.90;;;;;;4965160;28;20049;-83
2024/03/08 00:18:51;;;;;;;38.97;20.60;;;3.00;99.90;;;;;;4973890;28;20145;-84
2024/03/08 00:21:17;;;;;;;41.30;21.42;;;2.90;99.90;;;;;;4975751;28;20030;-84
2024/03/08 00:23:42;;;;;;;43.20;21.98;;;2.90;99.90;;;;;;4977150;28;20453;-83
2024/03/08 00:26:08;;;;;;;44.70;22.55;;;2.90;99.90;;;;;;4976805;28;20019;-84
2024/03/08 00:28:36;;;;;;;41.50;21.77;;;2.90;99.90;;;;;;4977382;28;20022;-83
2024/03/08 00:31:02;;;;;;;45.00;21.77;;;2.80;99.90;;;;;;4974106;28;20054;-84
2024/03/08 00:33:28;;;;;;;46.63;22.52;;;2.80;99.90;;;;;;4975816;28;20034;-84
2024/03/08 00:35:54;;;;;;;41.33;21.00;;;2.80;99.90;;;;;;4977571;28;20034;-83
2024/03/08 00:38:19;;;;;;;39.53;20.50;;;2.80;99.90;;;;;;4976215;28;20117;-83
2024/03/08 00:40:45;;;;;;;38.00;20.95;;;2.80;99.90;;;;;;4965877;28;20184;-83
2024/03/08 00:43:11;;;;;;;42.00;22.48;;;2.80;99.90;;;;;;4976789;28;20098;-83
2024/03/08 00:45:36;;;;;;;40.33;20.65;;;2.80;99.90;;;;;;4977452;28;20117;-83
2024/03/08 00:48:03;;;;;;;41.28;20.90;;;2.80;99.90;;;;;;4986991;28;20390;-83
2024/03/08 00:50:29;;;;;;;40.58;21.80;;;2.70;99.90;;;;;;4977370;28;20069;-83
2024/03/08 00:52:56;;;;;;;44.13;22.88;;;2.80;99.90;;;;;;4973097;28;20094;-83
2024/03/08 00:55:21;;;;;;;43.67;22.77;;;2.70;99.90;;;;;;4977121;28;20479;-83
2024/03/08 00:57:47;;;;;;;37.42;19.88;;;2.70;99.90;;;;;;4972179;28;20037;-83
2024/03/08 01:00:13;;;;;;;40.42;21.75;;;2.70;99.90;;;;;;4979872;28;20065;-83
2024/03/08 01:02:39;;;;;;;34.78;20.25;;;2.70;99.90;;;;;;4977385;28;20442;-83
2024/03/08 01:05:07;;;;;;;40.17;20.83;;;2.60;99.90;;;;;;4977021;28;20125;-83
2024/03/08 01:07:34;;;;;;;41.65;21.50;;;2.60;99.90;;;;;;4958273;28;20119;-83
2024/03/08 01:10:00;;;;;;;34.58;17.92;;;2.60;99.90;;;;;;4975287;28;20073;-83
2024/03/08 01:12:26;;;;;;;39.78;21.55;;;2.60;99.90;;;;;;4970313;28;20035;-83
2024/03/08 01:14:51;;;;;;;41.78;21.88;;;2.50;99.90;;;;;;4974134;28;20399;-84
2024/03/08 01:17:17;;;;;;;41.50;22.20;;;2.50;99.90;;;;;;4976792;28;20077;-83
2024/03/08 01:19:44;;;;;;;42.33;21.75;;;2.50;99.90;;;;;;4974611;28;20148;-83
2024/03/08 01:22:10;;;;;;;39.35;22.25;;;2.50;99.90;;;;;;4964543;28;20054;-84
2024/03/08 01:24:36;;;;;;;43.40;22.30;;;2.50;99.90;;;;;;4976554;28;20065;-83
2024/03/08 01:27:02;;;;;;;38.42;21.25;;;2.50;99.90;;;;;;4975233;28;20068;-83
2024/03/08 01:29:29;;;;;;;41.47;22.30;;;2.40;99.90;;;;;;4976822;28;20022;-84
2024/03/08 01:31:56;;;;;;;38.63;21.92;;;2.40;99.90;;;;;;4973428;28;20114;-84
2024/03/08 01:34:24;;;;;;;40.88;21.30;;;2.40;99.90;;;;;;4980432;28;20026;-84
2024/03/08 01:36:50;;;;;;;42.95;22.90;;;2.40;99.90;;;;;;4974744;28;20064;-84
2024/03/08 01:39:17;;;;;;;42.88;21.58;;;2.40;99.90;;;;;;4963039;28;20046;-83
2024/03/08 01:41:42;;;;;;;37.28;21.48;;;2.30;99.90;;;;;;4976467;28;20019;-83
2024/03/08 01:44:09;;;;;;;38.40;21.98;;;2.30;99.90;;;;;;4973730;28;20029;-83
2024/03/08 01:46:35;;;;;;;38.38;21.90;;;2.20;99.90;;;;;;4976712;28;20125;-83
2024/03/08 01:49:01;;;;;;;40.28;21.13;;;2.20;99.90;;;;;;4975882;28;20391;-83
2024/03/08 01:51:28;;;;;;;40.22;22.83;;;2.20;99.90;;;;;;4976579;28;20031;-84
2024/03/08 01:53:55;;;;;;;41.28;23.00;;;2.10;99.90;;;;;;4971004;28;20158;-82
2024/03/08 01:56:21;;;;;;;38.28;23.23;;;2.10;99.90;;;;;;4982724;28;20042;-83
2024/03/08 01:58:47;;;;;;;42.13;23.00;;;2.20;99.90;;;;;;4975421;28;20050;-83
2024/03/08 02:01:14;;;;;;;39.17;22.55;;;2.20;99.90;;;;;;4974414;28;20097;-84
2024/03/08 02:03:40;;;;;;;41.13;21.05;;;2.10;99.90;;;;;;4970546;28;20028;-83
2024/03/08 02:06:09;;;;;;;38.38;22.08;;;2.10;99.90;;;;;;4971399;28;20030;-84
2024/03/08 02:08:36;;;;;;;39.50;21.23;;;2.10;99.90;;;;;;4972561;28;20027;-83
2024/03/08 02:11:02;;;;;;;38.97;22.17;;;2.10;99.90;;;;;;4966869;28;20026;-83
2024/03/08 02:13:28;;;;;;;39.47;22.40;;;2.10;99.90;;;;;;4964798;28;20033;-84
2024/03/08 02:16:02;;;;;;;40.25;22.35;;;2.10;99.90;;;;;;4991148;28;20081;-84
2024/03/08 02:18:29;;;;;;;38.03;21.65;;;2.00;99.90;;;;;;4967819;28;20120;-84
2024/03/08 02:20:59;;;;;;;40.22;22.13;;;2.00;99.90;;;;;;4964454;28;20702;-84
2024/03/08 02:23:25;;;;;;;39.13;22.08;;;2.00;99.90;;;;;;4975104;28;20041;-84
2024/03/08 02:25:53;;;;;;;36.90;20.77;;;2.00;99.90;;;;;;4974658;28;20037;-83
2024/03/08 02:28:19;;;;;;;37.95;21.95;;;1.90;99.90;;;;;;4975657;28;20029;-84
2024/03/08 02:30:48;;;;;;;40.95;22.23;;;1.90;99.90;;;;;;4975303;28;20054;-84
2024/03/08 02:33:18;;;;;;;38.30;21.08;;;1.90;99.90;;;;;;4991039;28;20026;-84
2024/03/08 02:35:47;;;;;;;43.03;23.30;;;2.00;99.90;;;;;;4990687;28;20034;-84
2024/03/08 02:38:19;;;;;;;39.50;22.42;;;1.90;99.90;;;;;;4991710;28;20023;-84
2024/03/08 02:40:45;;;;;;;;;;;1.90;99.90;;;;;;4967798;28;20026;-84
2024/03/08 02:43:12;;;;;;;39.63;21.85;;;1.80;99.90;;;;;;4963435;28;19914;-84
2024/03/08 02:45:38;;;;;;;45.00;23.50;;;1.90;99.90;;;;;;4975116;28;20031;-84
2024/03/08 02:48:06;;;;;;;39.40;21.77;;;1.80;99.90;;;;;;4964699;28;20037;-84
2024/03/08 02:50:32;;;;;;;37.28;21.58;;;1.80;99.90;;;;;;4973823;28;20384;-84
2024/03/08 02:52:57;;;;;;;36.00;21.35;;;1.80;99.90;;;;;;4987566;28;20109;-84
2024/03/08 02:55:25;;;;;;;35.50;21.15;;;1.80;99.90;;;;;;4970361;28;20113;-84
2024/03/08 02:57:51;;;;;;;38.17;22.58;;;1.80;99.90;;;;;;4967081;28;20033;-83
2024/03/08 03:00:19;;;;;;;40.15;23.73;;;1.70;99.90;;;;;;4975141;28;20050;-84
2024/03/08 03:02:45;;;;;;;37.17;22.98;;;1.70;99.90;;;;;;4977620;28;20027;-84
2024/03/08 03:05:11;;;;;;;40.17;24.15;;;1.70;99.90;;;;;;4974462;28;20057;-84
2024/03/08 03:07:37;;;;;;;36.38;22.35;;;1.70;99.90;;;;;;4974963;28;20515;-84
2024/03/08 03:10:03;;;;;;;38.83;22.98;;;1.70;99.90;;;;;;4967228;28;20093;-84
2024/03/08 03:12:29;;;;;;;34.72;21.85;;;1.70;99.90;;;;;;4971928;28;20060;-84
2024/03/08 03:14:56;;;;;;;37.03;22.27;;;1.60;99.90;;;;;;4973508;28;20061;-84
2024/03/08 03:17:23;;;;;;;40.47;23.33;;;1.60;99.90;;;;;;4981337;28;20030;-84
2024/03/08 03:19:48;;;;;;;38.85;23.20;;;1.60;99.90;;;;;;4978813;28;20034;-83
2024/03/08 03:22:15;;;;;;;38.38;23.10;;;1.60;99.90;;;;;;4978515;28;20037;-84
2024/03/08 03:24:42;;;;;;;34.78;21.13;;;1.60;99.90;;;;;;4973820;28;20027;-84
2024/03/08 03:27:11;;;;;;;43.28;24.33;;;1.60;99.90;;;;;;4972907;28;20030;-83
2024/03/08 03:29:42;;;;;;;44.00;25.02;;;1.60;99.90;;;;;;4972843;28;20034;-84
2024/03/08 03:32:08;;;;;;;41.33;24.45;;;1.60;99.90;;;;;;4975170;28;20018;-84
2024/03/08 03:34:37;;;;;;;39.97;23.95;;;1.60;99.90;;;;;;4979836;28;20040;-84
2024/03/08 03:37:04;;;;;;;38.80;23.05;;;1.60;99.90;;;;;;4971411;28;20022;-85
2024/03/08 03:39:34;;;;;;;42.90;23.65;;;1.60;99.90;;;;;;4978692;28;20042;-84
2024/03/08 03:42:01;;;;;;;41.30;23.63;;;1.50;99.90;;;;;;4977808;28;20018;-84
2024/03/08 03:44:27;;;;;;;41.15;23.90;;;1.50;99.90;;;;;;4975605;28;20035;-84
2024/03/08 03:46:53;;;;;;;39.78;22.60;;;1.50;99.90;;;;;;4976817;28;20463;-84
2024/03/08 03:49:19;;;;;;;41.45;22.77;;;1.50;99.90;;;;;;4966145;28;20051;-83
2024/03/08 03:51:44;;;;;;;38.65;22.23;;;1.40;99.90;;;;;;4978939;28;20033;-84
2024/03/08 03:54:10;;;;;;;42.30;24.55;;;1.50;99.90;;;;;;4978855;28;20396;-83
2024/03/08 03:56:36;;;;;;;44.75;25.73;;;1.50;99.90;;;;;;4974267;28;20098;-84
2024/03/08 03:59:02;;;;;;;40.65;23.73;;;1.40;99.90;;;;;;4978557;28;20137;-84
2024/03/08 04:01:29;;;;;;;41.05;24.00;;;1.40;99.90;;;;;;4978431;28;20023;-84
2024/03/08 04:03:54;;;;;;;42.03;24.98;;;1.40;99.90;;;;;;4979221;28;20065;-84
2024/03/08 04:06:20;;;;;;;41.03;24.67;;;1.50;99.90;;;;;;4978102;28;20087;-84
2024/03/08 04:08:46;;;;;;;43.70;25.00;;;1.40;99.90;;;;;;4995426;28;20045;-84
2024/03/08 04:11:11;;;;;;;44.92;25.67;;;1.40;99.90;;;;;;4978536;28;20026;-84
2024/03/08 04:13:37;;;;;;;42.58;24.48;;;1.40;99.90;;;;;;4978749;28;20026;-84
2024/03/08 04:16:07;;;;;;;48.45;28.20;;;1.40;99.90;;;;;;4978269;28;20057;-84
2024/03/08 04:18:35;;;;;;;45.92;25.98;;;1.40;99.90;;;;;;4978318;28;20034;-84
2024/03/08 04:21:02;;;;;;;45.03;26.23;;;1.40;99.90;;;;;;4995766;28;20041;-85
2024/03/08 04:23:28;;;;;;;47.42;26.20;;;1.40;99.90;;;;;;4977627;28;20129;-84
2024/03/08 04:25:54;;;;;;;43.72;25.33;;;1.40;99.90;;;;;;4978314;28;20549;-84
2024/03/08 04:28:19;;;;;;;47.67;26.52;;;1.40;99.90;;;;;;4976073;28;20054;-84
2024/03/08 04:30:46;;;;;;;44.60;25.88;;;1.40;99.90;;;;;;4976907;28;20018;-84
2024/03/08 04:33:11;;;;;;;46.45;25.90;;;1.40;99.90;;;;;;4978144;28;20541;-84
2024/03/08 04:35:37;;;;;;;44.97;26.70;;;1.40;99.90;;;;;;4977690;28;20529;-84
2024/03/08 04:38:05;;;;;;;43.28;25.75;;;1.40;99.90;;;;;;4974461;28;20027;-84
2024/03/08 04:40:31;;;;;;;44.95;25.60;;;1.40;99.90;;;;;;4977543;28;20127;-84
2024/03/08 04:42:59;;;;;;;43.25;23.95;;;1.40;99.90;;;;;;4964621;28;20492;-84
2024/03/08 04:45:25;;;;;;;46.17;27.13;;;1.30;99.90;;;;;;4974203;28;20050;-84
2024/03/08 04:47:52;;;;;;;47.53;26.88;;;1.30;99.90;;;;;;4975962;28;20100;-84
2024/03/08 04:50:18;;;;;;;44.28;25.90;;;1.30;99.90;;;;;;4976535;28;20105;-84
2024/03/08 04:52:44;;;;;;;48.45;26.70;;;1.30;99.90;;;;;;4966863;28;20030;-83
2024/03/08 04:55:09;;;;;;;43.80;24.80;;;1.30;99.90;;;;;;4977601;28;20022;-84
2024/03/08 04:57:35;;;;;;;43.25;25.13;;;1.30;99.90;;;;;;4970966;28;20126;-84
2024/03/08 05:00:11;;;;;;;48.28;27.73;;;1.30;99.90;;;;;;4965934;28;20070;-84
2024/03/08 05:02:38;;;;;;;47.53;26.63;;;1.30;99.90;;;;;;4974454;28;20042;-84
2024/03/08 05:05:06;;;;;;;50.75;27.42;;;1.30;99.90;;;;;;4982943;28;20050;-84
2024/03/08 05:07:32;;;;;;;47.15;27.15;;;1.30;99.90;;;;;;4977321;28;20498;-84
2024/03/08 05:09:59;;;;;;;45.20;26.15;;;1.20;99.90;;;;;;4966742;28;20027;-84
2024/03/08 05:12:24;;;;;;;45.53;26.33;;;1.20;99.90;;;;;;4976973;28;20072;-84
2024/03/08 05:14:50;;;;;;;48.47;27.35;;;1.20;99.90;;;;;;4976566;28;20485;-84
2024/03/08 05:17:17;;;;;;;47.45;26.85;;;1.20;99.90;;;;;;4987613;28;20026;-84
2024/03/08 05:19:43;;;;;;;44.45;26.85;;;1.20;99.90;;;;;;4975532;28;20042;-85
2024/03/08 05:22:09;;;;;;;47.38;25.42;;;1.20;99.90;;;;;;4969831;28;20540;-85
2024/03/08 05:24:35;;;;;;;44.30;24.38;;;1.20;99.90;;;;;;4972912;28;20027;-85
2024/03/08 05:27:00;;;;;;;46.28;25.67;;;1.20;99.90;;;;;;4976532;28;20033;-85
2024/03/08 05:29:26;;;;;;;45.58;24.58;;;1.10;99.90;;;;;;4968584;28;20692;-85
2024/03/08 05:31:52;;;;;;;47.55;27.13;;;1.10;99.90;;;;;;4970198;28;20050;-85
2024/03/08 05:34:19;;;;;;;46.72;26.33;;;1.10;99.90;;;;;;4971601;28;20027;-85
2024/03/08 05:36:46;;;;;;;43.95;25.35;;;1.10;99.90;;;;;;4974478;28;20050;-84
2024/03/08 05:39:16;;;;;;;48.28;26.77;;;1.10;99.90;;;;;;4971565;28;20089;-85
2024/03/08 05:41:42;;;;;;;46.83;26.40;;;1.10;99.90;;;;;;4974557;28;20379;-85
2024/03/08 05:44:08;;;;;;;43.00;24.15;;;1.10;99.90;;;;;;4968162;28;20058;-85
2024/03/08 05:46:35;;;;;;;45.90;24.85;;;1.00;99.90;;;;;;4969025;28;20065;-85
2024/03/08 05:49:05;;;;;;;47.80;26.92;;;1.10;99.90;;;;;;4971555;28;20027;-85
2024/03/08 05:51:34;;;;;;;49.55;27.63;;;1.10;99.90;;;;;;4975511;28;20031;-85
2024/03/08 05:54:05;;;;;;;45.13;24.73;;;1.10;99.90;;;;;;4980349;28;20026;-85
2024/03/08 05:56:31;;;;;;;44.53;26.23;;;1.10;99.90;;;;;;4974804;28;20037;-85
2024/03/08 05:58:58;;;;;;;49.67;26.88;;;1.10;99.90;;;;;;4974423;28;20054;-85
2024/03/08 06:01:24;;;;;;;46.15;24.33;;;1.10;99.90;;;;;;4966131;28;20486;-85
2024/03/08 06:03:49;;;;;;;46.13;25.98;;;1.10;99.90;;;;;;4971560;28;20121;-85
2024/03/08 06:06:15;;;;;;;43.80;25.63;;;1.10;99.90;;;;;;4976062;28;20526;-85
2024/03/08 06:08:43;;;;;;;43.20;24.35;;;1.10;99.90;;;;;;4969298;28;20033;-85
2024/03/08 06:11:09;;;;;;;47.22;26.30;;;1.10;99.90;;;;;;4968701;28;20509;-85
2024/03/08 06:13:35;;;;;;;47.03;26.20;;;1.10;99.90;;;;;;4975297;28;20030;-85
2024/03/08 06:16:04;;;;;;;53.22;29.33;;;1.10;99.90;;;;;;4974438;28;20018;-86
2024/03/08 06:18:30;;;;;;;50.22;28.08;;;1.10;99.90;;;;;;4972959;28;20036;-85
2024/03/08 06:20:56;;;;;;;52.38;28.20;;;1.10;99.90;;;;;;4992906;28;20036;-85
2024/03/08 06:23:22;;;;;;;47.22;26.52;;;1.10;99.90;;;;;;4971227;28;20549;-85
2024/03/08 06:25:47;;;;;;;50.80;26.88;;;1.10;99.90;;;;;;4977640;28;20044;-85
2024/03/08 06:28:14;;;;;;;47.42;26.70;;;1.10;99.90;;;;;;4963350;28;20438;-85
2024/03/08 06:30:40;;;;;;;44.42;24.23;;;1.10;99.90;;;;;;4972078;28;20505;-85
2024/03/08 06:33:05;;;;;;;43.53;25.13;;;1.10;99.90;;;;;;4971172;28;20109;-86
2024/03/08 06:35:34;;;;;;;50.03;28.27;;;1.10;99.90;;;;;;4969885;28;20088;-86
2024/03/08 06:38:00;;;;;;;50.63;27.80;;;1.20;99.90;;;;;;4965584;28;20026;-85
2024/03/08 06:40:26;;;;;;;52.38;27.55;;;1.20;99.90;;;;;;4975790;28;20045;-85
2024/03/08 06:42:51;;;;;;;46.10;25.13;;;1.20;99.90;;;;;;4969138;28;20027;-85
2024/03/08 06:45:20;;;;;;;49.17;24.33;;;1.20;99.90;;;;;;4972647;28;20033;-85
2024/03/08 06:47:47;;;;;;;46.95;26.73;;;1.30;99.90;;;;;;4972225;28;21002;-86
2024/03/08 06:50:13;;;;;;;46.35;25.20;;;1.30;99.90;;;;;;4975610;28;20402;-85
2024/03/08 06:52:40;;;;;;;47.28;26.90;;;1.30;99.90;;;;;;4970714;28;20033;-85
2024/03/08 06:55:05;;;;;;;49.53;27.98;;;1.40;99.90;;;;;;4972250;28;20158;-85
2024/03/08 06:57:32;;;;;;;50.45;26.50;;;1.40;99.90;;;;;;4984374;28;20518;-85
2024/03/08 06:59:57;;;;;;;46.63;26.20;;;1.50;99.90;;;;;;4986512;28;20056;-85
2024/03/08 07:02:27;;;;;;;48.65;27.55;;;1.50;99.90;;;;;;4969241;28;20018;-86
2024/03/08 07:04:52;;;;;;;47.28;26.27;;;1.50;99.90;;;;;;4971365;28;20045;-85
2024/03/08 07:07:20;;;;;;;50.53;28.55;;;1.60;99.90;;;;;;4974034;28;20018;-85
2024/03/08 07:09:46;;;;;;;43.05;26.13;;;1.60;99.90;;;;;;4975530;28;20034;-85
2024/03/08 07:12:13;;;;;;;46.78;26.80;;;1.70;99.90;;;;;;4974771;28;20030;-86
2024/03/08 07:14:40;;;;;;;47.50;25.75;;;1.70;99.90;;;;;;4970899;28;20030;-86
2024/03/08 07:17:08;;;;;;;53.50;27.73;;;1.80;99.90;;;;;;4964950;28;20023;-84
2024/03/08 07:19:34;;;;;;;48.20;26.65;;;1.80;99.90;;;;;;4971023;28;20049;-85
2024/03/08 07:22:00;;;;;;;46.20;26.83;;;1.90;99.90;;;;;;4971801;28;20474;-85
2024/03/08 07:27:09;;;;;;;46.65;26.33;;;2.10;99.90;;;;;;4991368;28;20033;-85
2024/03/08 07:29:35;;;;;;;46.47;26.75;;;2.10;99.90;;;;;;4971193;28;20031;-85
2024/03/08 07:34:31;;;;;;;41.95;25.05;;;2.30;99.90;;;;;;4992995;28;20034;-85
2024/03/08 07:36:57;;;;;;;46.13;27.10;;;2.30;99.90;;;;;;4975492;28;20034;-85
2024/03/08 07:39:23;;;;;;;49.50;26.42;;;2.40;99.90;;;;;;4975253;28;20034;-85
2024/03/08 07:41:52;;;;;;;43.88;25.27;;;2.40;99.90;;;;;;4974369;28;20371;-85
2024/03/08 07:44:18;;;;;;;45.03;26.77;;;2.50;99.90;;;;;;4974623;28;20033;-85
2024/03/08 07:46:44;;;;;;;46.42;25.48;;;2.50;99.90;;;;;;4988213;28;20065;-85
2024/03/08 07:49:10;;;;;;;45.95;26.27;;;2.60;99.90;;;;;;4974819;28;20034;-85
2024/03/08 07:51:37;;;;;;;45.50;26.92;;;2.70;99.90;;;;;;4974441;28;20054;-85
2024/03/08 07:54:04;;;;;;;43.88;24.25;;;2.70;99.90;;;;;;4975231;28;20118;-85
2024/03/08 07:56:30;;;;;;;48.05;25.73;;;2.80;99.90;;;;;;4967452;28;20038;-84
2024/03/08 07:58:56;;;;;;;48.72;26.45;;;2.90;99.90;;;;;;4972632;28;20493;-85
2024/03/08 08:01:23;;;;;;;44.22;27.05;;;2.90;99.90;;;;;;4975591;28;20078;-85
2024/03/08 08:03:48;;;;;;;42.30;25.25;;;3.00;99.90;;;;;;4962243;28;20580;-84
2024/03/08 08:06:17;;;;;;;45.17;26.38;;;3.10;99.90;;;;;;4975398;28;20026;-83
2024/03/08 08:08:43;;;;;;;44.08;26.48;;;3.10;99.90;;;;;;4963877;28;20031;-83
2024/03/08 08:11:09;;;;;;;49.88;27.52;;;3.20;99.90;;;;;;4976239;28;20454;-83
2024/03/08 08:13:36;;;;;;;44.50;26.17;;;3.30;99.90;;;;;;4976485;28;20089;-84
2024/03/08 08:16:02;;;;;;;41.35;24.88;;;3.30;99.90;;;;;;4975829;28;20479;-82
2024/03/08 08:18:29;;;;;;;41.80;24.35;;;3.40;99.90;;;;;;4974806;28;20129;-83
2024/03/08 08:20:55;;;;;;;40.67;25.23;;;3.50;99.90;;;;;;4992934;28;20406;-83
2024/03/08 08:23:21;;;;;;;46.80;26.27;;;3.50;99.90;;;;;;4970182;28;20545;-83
2024/03/08 08:25:50;;;;;;;41.35;24.20;;;3.60;99.90;;;;;;4974389;28;20034;-84
2024/03/08 08:28:18;;;;;;;43.63;25.65;;;3.70;99.90;;;;;;4971432;28;20027;-83
2024/03/08 08:30:45;;;;;;;45.15;27.27;;;3.70;99.90;;;;;;4969841;28;20027;-83
2024/03/08 08:33:10;;;;;;;52.17;25.90;;;3.80;99.90;;;;;;4974048;28;20045;-83
2024/03/08 08:35:40;;;;;;;44.67;26.08;;;3.90;99.90;;;;;;4980904;28;20030;-83
2024/03/08 08:38:07;;;;;;;46.42;26.08;;;4.00;99.90;;;;;;4965467;28;20030;-83
2024/03/08 08:40:33;;;;;;;42.28;25.35;;;4.00;99.90;;;;;;4977514;28;20046;-83
2024/03/08 08:42:59;;;;;;;42.97;26.35;;;4.10;99.90;;;;;;4978016;28;20041;-83
2024/03/08 08:45:25;;;;;;;41.40;25.08;;;4.10;99.90;;;;;;4972849;28;20026;-84
2024/03/08 08:47:52;;;;;;;39.20;24.63;;;4.20;99.90;;;;;;4970663;28;20023;-83
2024/03/08 08:50:24;;;;;;;44.05;26.45;;;4.30;99.90;;;;;;4964401;28;20034;-83
2024/03/08 08:52:49;;;;;;;42.95;26.05;;;4.40;99.90;;;;;;4977579;28;20030;-83
2024/03/08 08:55:15;;;;;;;41.92;25.98;;;4.50;99.90;;;;;;4976703;28;20041;-83
2024/03/08 08:57:41;;;;;;;39.72;22.95;;;4.60;99.90;;;;;;4968710;28;20117;-83
2024/03/08 09:00:09;;;;;;;40.65;24.42;;;4.70;99.90;;;;;;4994378;28;20054;-83
2024/03/08 09:02:34;;;;;;;41.47;25.02;;;4.80;99.90;;;;;;4987726;28;20027;-83
2024/03/08 09:05:01;;;;;;;37.28;23.48;;;4.90;99.90;;;;;;4971599;28;20027;-83
2024/03/08 09:07:27;;;;;;;35.67;22.23;;;5.00;99.90;;;;;;4976896;28;20037;-83
2024/03/08 09:09:57;;;;;;;40.50;24.27;;;5.20;99.90;;;;;;4960577;28;20062;-83
2024/03/08 09:12:23;;;;;;;39.40;24.58;;;5.30;99.90;;;;;;4958157;28;20029;-83
2024/03/08 09:14:49;;;;;;;36.88;22.70;;;5.40;99.90;;;;;;4963134;28;20088;-82
2024/03/08 09:17:17;;;;;;;36.70;22.65;;;5.40;99.90;;;;;;4973167;28;20546;-82
2024/03/08 09:19:43;;;;;;;35.65;22.55;;;5.60;99.90;;;;;;4975671;28;20096;-82
2024/03/08 09:22:08;;;;;;;42.67;23.10;;;5.60;99.90;;;;;;4976627;28;20026;-82
2024/03/08 09:24:34;;;;;;;36.15;22.45;;;5.80;99.90;;;;;;4974997;28;20117;-82
2024/03/08 09:27:00;;;;;;;34.42;21.58;;;5.80;99.90;;;;;;4964158;28;20023;-82
2024/03/08 09:29:25;;;;;;;38.13;23.50;;;5.90;99.90;;;;;;4970681;28;20018;-81
2024/03/08 09:31:51;;;;;;;36.97;22.95;;;6.00;99.90;;;;;;4976171;28;20026;-82
2024/03/08 09:34:18;;;;;;;38.72;22.23;;;6.10;99.90;;;;;;4977330;28;20514;-82
2024/03/08 09:36:44;;;;;;;34.42;21.85;;;6.20;99.90;;;;;;4968061;28;20078;-82
2024/03/08 09:39:16;;;;;;;34.90;21.80;;;6.20;99.90;;;;;;4974287;28;20457;-82
2024/03/08 09:41:43;;;;;;;36.00;21.85;;;6.30;99.90;;;;;;4965095;28;20090;-82
2024/03/08 09:44:09;;;;;;;35.78;22.95;;;6.30;99.90;;;;;;4958149;28;20045;-82
2024/03/08 09:46:35;;;;;;;37.60;22.08;;;6.40;99.90;;;;;;4975972;28;20479;-83
2024/03/08 09:49:01;;;;;;;37.58;21.98;;;6.50;99.90;;;;;;4972162;28;20109;-83
2024/03/08 09:51:33;;;;;;;37.63;22.95;;;6.50;99.90;;;;;;4969726;28;20124;-82
2024/03/08 09:53:59;;;;;;;31.43;21.47;;;6.70;99.90;;;;;;4966987;28;20488;-83
2024/03/08 09:56:27;;;;;;;37.50;22.75;;;6.70;99.90;;;;;;4975877;28;20030;-83
2024/03/08 10:01:39;;;;;;;33.53;21.77;;;6.80;99.90;;;;;;4984362;28;20045;-82
2024/03/08 10:04:05;;;;;;;33.88;20.65;;;6.90;99.90;;;;;;4988642;28;20062;-83
2024/03/08 10:06:31;;;;;;;30.08;20.30;;;6.90;99.90;;;;;;4969481;28;20089;-83
2024/03/08 10:08:57;;;;;;;28.75;19.50;;;6.90;99.90;;;;;;4972521;28;20102;-83
2024/03/08 10:11:24;;;;;;;32.35;20.70;;;7.00;99.90;;;;;;4974606;28;20014;-84
2024/03/08 10:13:50;;;;;;;34.65;21.25;;;7.20;99.90;;;;;;4982591;28;20117;-83
2024/03/08 10:16:19;;;;;;;35.22;22.23;;;7.20;99.90;;;;;;4982954;28;20165;-83
2024/03/08 10:18:45;;;;;;;32.40;22.02;;;7.20;99.90;;;;;;4973708;28;20018;-83
2024/03/08 10:21:11;;;;;;;33.88;21.30;;;7.30;99.90;;;;;;4972436;28;20033;-83
2024/03/08 10:23:37;;;;;;;32.70;20.40;;;7.40;99.90;;;;;;4975407;28;20026;-83
2024/03/08 10:26:11;;;;;;;31.90;20.08;;;7.50;99.90;;;;;;4975262;28;20022;-83
2024/03/08 10:28:37;;;;;;;31.15;19.48;;;7.50;99.90;;;;;;4966445;28;20121;-82
2024/03/08 10:31:02;;;;;;;32.80;18.60;;;7.60;99.90;;;;;;4992841;28;20089;-83
2024/03/08 10:33:28;;;;;;;32.45;19.48;;;7.70;99.90;;;;;;4964534;28;20031;-83
2024/03/08 10:35:55;;;;;;;30.50;19.08;;;7.80;99.90;;;;;;4975134;28;20033;-83
2024/03/08 10:38:23;;;;;;;30.63;19.73;;;7.90;99.90;;;;;;4973521;28;20030;-83
2024/03/08 10:40:52;;;;;;;28.65;18.83;;;8.00;99.90;;;;;;4974343;28;20505;-83
2024/03/08 10:43:25;;;;;;;32.35;20.38;;;8.10;99.90;;;;;;4984987;28;20061;-83
2024/03/08 10:46:02;;;;;;;30.58;19.83;;;8.10;99.90;;;;;;4990759;28;20030;-83
2024/03/08 10:48:32;;;;;;;31.67;19.60;;;8.10;99.90;;;;;;4967749;28;20034;-83
2024/03/08 10:51:11;;;;;;;30.85;19.80;;;8.20;99.90;;;;;;4976361;28;20034;-82
2024/03/08 10:53:39;;;;;;;31.60;20.10;;;8.20;99.90;;;;;;4974406;28;20026;-83
2024/03/08 10:56:05;;;;;;;31.40;20.15;;;8.30;99.90;;;;;;4974920;28;20026;-83
2024/03/08 10:58:31;;;;;;;29.48;19.38;;;8.30;99.90;;;;;;4975367;28;20038;-91
2024/03/08 11:00:58;;;;;;;27.58;17.38;;;8.30;99.90;;;;;;4972659;28;20385;-82
2024/03/08 11:03:45;;;;;;;31.67;20.00;;;8.40;99.90;;;;;;4969816;28;20045;-82
2024/03/08 11:06:45;;;;;;;33.42;19.08;;;8.40;99.90;;;;;;4967536;28;20030;-83
2024/03/08 11:09:32;;;;;;;29.33;19.88;;;8.50;99.90;;;;;;4949421;28;20146;-83
2024/03/08 11:12:19;;;;;;;32.30;18.35;;;8.60;99.90;;;;;;4988355;28;20022;-83
2024/03/08 11:14:49;;;;;;;31.05;17.75;;;8.60;99.90;;;;;;4966857;28;20033;-84
2024/03/08 11:17:37;;;;;;;26.63;18.10;;;8.70;99.90;;;;;;4973761;28;20049;-90
2024/03/08 11:20:20;;;;;;;25.85;17.00;;;8.80;99.90;;;;;;4963497;28;20414;-81
2024/03/08 11:22:53;;;;;;;;;;;8.90;99.90;;;;;;4984398;28;20019;-82
2024/03/08 11:25:43;;;;;;;26.30;16.80;;;8.90;99.90;;;;;;4972972;28;19916;-82
2024/03/08 11:28:24;;;;;;;29.80;16.33;;;9.00;99.90;;;;;;4970593;28;20030;-82
2024/03/08 11:30:59;;;;;;;26.27;16.35;;;9.20;99.90;;;;;;4973658;28;20035;-82
2024/03/08 11:33:34;;;;;;;29.02;17.23;;;9.20;99.90;;;;;;4968349;28;20023;-82
2024/03/08 11:36:16;;;;;;;23.92;15.32;;;9.20;99.90;;;;;;4978923;28;20041;-82
2024/03/08 11:38:48;;;;;;;26.90;16.97;;;9.30;99.90;;;;;;4978769;28;20038;-82
2024/03/08 11:41:14;;;;;;;25.20;17.30;;;9.30;99.90;;;;;;4977865;28;20026;-82
2024/03/08 11:43:44;;;;;;;27.88;16.60;;;9.40;99.90;;;;;;4977367;28;20505;-82
2024/03/08 11:46:13;;;;;;;27.55;17.95;;;9.40;99.90;;;;;;4995842;28;20081;-82
2024/03/08 11:48:44;;;;;;;25.00;15.85;;;9.50;99.90;;;;;;4978577;28;20022;-83
2024/03/08 11:51:14;;;;;;;23.67;14.93;;;9.50;99.90;;;;;;4968638;28;20086;-82
2024/03/08 11:53:41;;;;;;;26.75;16.38;;;9.60;99.90;;;;;;4977063;28;20085;-83
2024/03/08 11:56:12;;;;;;;27.50;16.75;;;9.60;99.90;;;;;;4980177;28;20502;-82
2024/03/08 11:58:38;;;;;;;24.77;15.95;;;9.60;99.90;;;;;;4968925;28;20130;-82
2024/03/08 12:01:09;;;;;;;25.52;16.50;;;9.70;99.90;;;;;;4978985;28;20188;-82
2024/03/08 12:03:35;;;;;;;29.98;16.73;;;9.80;99.90;;;;;;4979471;28;20049;-83
2024/03/08 12:06:01;;;;;;;20.85;14.07;;;9.90;99.90;;;;;;4993800;28;20359;-83
2024/03/08 12:08:31;;;;;;;26.48;14.60;;;10.00;99.90;;;;;;4974887;28;20362;-83
2024/03/08 12:10:59;;;;;;;21.70;14.90;;;10.10;99.90;;;;;;4974680;28;20026;-83
2024/03/08 12:13:29;;;;;;;22.17;15.02;;;10.00;99.90;;;;;;4995786;28;20029;-83
2024/03/08 12:15:56;;;;;;;22.75;15.02;;;10.00;99.90;;;;;;4978975;28;20028;-82
2024/03/08 12:18:22;;;;;;;22.10;14.77;;;10.10;99.90;;;;;;4976646;28;20372;-82
2024/03/08 12:20:49;;;;;;;22.30;14.45;;;10.00;99.50;;;;;;4974114;28;20044;-82
2024/03/08 12:23:16;;;;;;;23.77;14.98;;;10.10;99.90;;;;;;4977031;28;20076;-82
2024/03/08 12:25:42;;;;;;;24.30;14.93;;;10.10;99.80;;;;;;4975988;28;20034;-82
2024/03/08 12:28:12;;;;;;;26.33;15.52;;;10.10;99.60;;;;;;4993570;28;20474;-82
2024/03/08 12:30:54;;;;;;;24.70;15.63;;;10.20;99.30;;;;;;4997058;28;20033;-82
2024/03/08 12:33:19;;;;;;;23.00;15.40;;;10.20;99.00;;;;;;4996170;28;20470;-83
2024/03/08 12:35:58;;;;;;;24.58;16.17;;;10.30;99.50;;;;;;4994591;28;20029;-82
2024/03/08 12:38:27;;;;;;;26.83;16.55;;;10.40;99.00;;;;;;4978207;28;20490;-82
2024/03/08 12:40:58;;;;;;;21.92;14.23;;;10.40;99.10;;;;;;4977633;28;20556;-81
2024/03/08 12:43:24;;;;;;;25.73;16.17;;;10.50;99.10;;;;;;4971484;28;20023;-81
2024/03/08 12:45:51;;;;;;;21.63;15.05;;;10.50;98.80;;;;;;4978171;28;20441;-82
2024/03/08 12:48:17;;;;;;;20.38;14.07;;;10.60;98.50;;;;;;4974884;28;20028;-82